Time,TemperatureF,DewpointF,PressureIn,WindDirection,WindDirectionDegrees,WindSpeedMPH,WindSpeedGustMPH,Humidity,HourlyPrecipIn,Conditions,Clouds,dailyrainin,SoftwareType,DateUTC
2013-03-01 00:00:00,34.5,31.2,29.64,West,270,0.0,1.3,88,0.02,,,0.55,WUHU21623XXSP,2013-03-01 05:00:00,
2013-03-01 00:05:00,34.5,31.2,29.64,West,270,0.0,1.3,88,0.02,,,0.55,WUHU21623XXSP,2013-03-01 05:05:00,
2013-03-01 00:06:00,34.5,31.2,29.64,West,270,0.0,1.3,88,0.02,,,0.55,WUHU21623XXSP,2013-03-01 05:06:00,
2013-03-01 00:11:00,34.7,31.4,29.64,West,270,0.0,1.3,88,0.02,,,0.00,WUHU21623XXSP,2013-03-01 05:11:00,
2013-03-01 00:16:00,34.5,31.2,29.64,WNW,292,0.0,1.8,88,0.02,,,0.00,WUHU21623XXSP,2013-03-01 05:16:00,
2013-03-01 00:21:00,34.7,31.4,29.64,WNW,292,0.0,1.8,88,0.02,,,0.00,WUHU21623XXSP,2013-03-01 05:21:00,
2013-03-01 00:26:00,34.5,31.2,29.64,West,270,0.0,1.6,88,0.02,,,0.00,WUHU21623XXSP,2013-03-01 05:26:00,
2013-03-01 00:31:00,34.3,31.1,29.65,West,270,0.0,0.7,88,0.00,,,0.00,WUHU21623XXSP,2013-03-01 05:31:00,
2013-03-01 00:36:00,34.7,31.4,29.65,WNW,292,0.0,0.7,88,0.00,,,0.00,WUHU21623XXSP,2013-03-01 05:36:00,
2013-03-01 00:41:00,34.5,31.2,29.65,WNW,292,0.0,3.4,88,0.00,,,0.00,WUHU21623XXSP,2013-03-01 05:41:00,
2013-03-01 00:46:00,34.5,31.2,29.64,WNW,292,0.0,6.5,88,0.02,,,0.02,WUHU21623XXSP,2013-03-01 05:46:00,
2013-03-01 00:51:00,34.3,30.8,29.64,WNW,292,0.0,6.5,87,0.02,,,0.02,WUHU21623XXSP,2013-03-01 05:51:00,
2013-03-01 00:56:00,34.3,30.8,29.65,West,270,0.0,1.8,87,0.02,,,0.02,WUHU21623XXSP,2013-03-01 05:56:00,
2013-03-01 01:01:00,34.3,30.8,29.65,West,270,0.0,2.5,87,0.02,,,0.02,WUHU21623XXSP,2013-03-01 06:01:00,
2013-03-01 01:06:00,34.3,30.8,29.65,West,270,0.0,2.5,87,0.02,,,0.02,WUHU21623XXSP,2013-03-01 06:06:00,
2013-03-01 01:11:00,34.3,30.8,29.65,West,270,0.0,1.3,87,0.02,,,0.02,WUHU21623XXSP,2013-03-01 06:11:00,
2013-03-01 01:16:00,34.3,30.8,29.65,WNW,292,0.0,2.2,87,0.02,,,0.02,WUHU21623XXSP,2013-03-01 06:16:00,
2013-03-01 01:21:00,34.3,30.8,29.65,West,270,0.0,2.2,87,0.02,,,0.02,WUHU21623XXSP,2013-03-01 06:21:00,
2013-03-01 01:26:00,34.2,30.6,29.65,WNW,292,0.0,2.0,87,0.02,,,0.02,WUHU21623XXSP,2013-03-01 06:26:00,
2013-03-01 01:31:00,34.0,30.4,29.65,WNW,292,0.0,2.5,87,0.02,,,0.02,WUHU21623XXSP,2013-03-01 06:31:00,
2013-03-01 01:36:00,34.0,30.4,29.65,West,270,0.0,3.6,87,0.04,,,0.04,WUHU21623XXSP,2013-03-01 06:36:00,
2013-03-01 01:41:00,34.2,30.6,29.65,WNW,292,3.6,4.7,87,0.04,,,0.04,WUHU21623XXSP,2013-03-01 06:41:00,
2013-03-01 01:46:00,34.3,30.8,29.64,WNW,292,1.8,4.7,87,0.02,,,0.04,WUHU21623XXSP,2013-03-01 06:46:00,
2013-03-01 01:51:00,34.3,30.8,29.65,WNW,292,0.0,4.5,87,0.02,,,0.04,WUHU21623XXSP,2013-03-01 06:51:00,
2013-03-01 01:56:00,34.2,30.3,29.65,WNW,292,0.0,4.3,86,0.02,,,0.04,WUHU21623XXSP,2013-03-01 06:56:00,
2013-03-01 02:01:00,34.0,30.1,29.65,WNW,292,2.9,3.6,86,0.02,,,0.04,WUHU21623XXSP,2013-03-01 07:01:00,
2013-03-01 02:06:00,34.0,30.1,29.64,WNW,292,0.0,4.5,86,0.02,,,0.04,WUHU21623XXSP,2013-03-01 07:06:00,
2013-03-01 02:11:00,33.8,29.9,29.65,NW,315,2.0,7.2,86,0.02,,,0.04,WUHU21623XXSP,2013-03-01 07:11:00,
2013-03-01 02:16:00,33.8,29.9,29.64,WNW,292,0.0,7.2,86,0.02,,,0.04,WUHU21623XXSP,2013-03-01 07:16:00,
2013-03-01 02:21:00,33.6,29.8,29.64,WNW,292,0.0,7.2,86,0.02,,,0.04,WUHU21623XXSP,2013-03-01 07:21:00,
2013-03-01 02:26:00,34.0,30.4,29.64,WNW,292,1.6,1.8,87,0.02,,,0.04,WUHU21623XXSP,2013-03-01 07:26:00,
2013-03-01 02:31:00,33.8,29.9,29.64,West,270,0.0,5.1,86,0.02,,,0.04,WUHU21623XXSP,2013-03-01 07:31:00,
2013-03-01 02:36:00,33.6,29.5,29.64,West,270,0.0,6.7,85,0.00,,,0.04,WUHU21623XXSP,2013-03-01 07:36:00,
2013-03-01 02:41:00,33.8,29.5,29.63,West,270,3.8,10.3,85,0.00,,,0.04,WUHU21623XXSP,2013-03-01 07:41:00,
2013-03-01 02:46:00,33.8,29.7,29.63,WNW,292,1.8,10.3,85,0.00,,,0.04,WUHU21623XXSP,2013-03-01 07:46:00,
2013-03-01 02:51:00,34.0,29.6,29.64,WNW,292,4.5,8.3,84,0.00,,,0.04,WUHU21623XXSP,2013-03-01 07:51:00,
2013-03-01 02:56:00,33.8,29.4,29.63,West,270,8.3,8.3,84,0.00,,,0.04,WUHU21623XXSP,2013-03-01 07:56:00,
2013-03-01 03:01:00,33.6,29.2,29.64,WNW,292,4.0,8.3,84,0.00,,,0.04,WUHU21623XXSP,2013-03-01 08:01:00,
2013-03-01 03:06:00,33.8,29.4,29.64,West,270,3.6,8.3,84,0.00,,,0.04,WUHU21623XXSP,2013-03-01 08:06:00,
2013-03-01 03:11:00,33.6,29.2,29.64,West,270,8.1,8.1,84,0.00,,,0.04,WUHU21623XXSP,2013-03-01 08:11:00,
2013-03-01 03:16:00,33.6,29.2,29.64,WNW,292,5.4,10.7,84,0.00,,,0.04,WUHU21623XXSP,2013-03-01 08:16:00,
2013-03-01 03:21:00,33.6,29.2,29.64,West,270,2.5,10.7,84,0.00,,,0.04,WUHU21623XXSP,2013-03-01 08:21:00,
2013-03-01 03:26:00,33.4,29.0,29.64,West,270,0.0,10.1,84,0.00,,,0.04,WUHU21623XXSP,2013-03-01 08:26:00,
2013-03-01 03:31:00,33.4,29.0,29.64,NNW,337,3.4,8.7,84,0.00,,,0.04,WUHU21623XXSP,2013-03-01 08:31:00,
2013-03-01 03:36:00,33.3,28.9,29.65,WNW,292,1.6,7.8,84,0.00,,,0.04,WUHU21623XXSP,2013-03-01 08:36:00,
2013-03-01 03:41:00,33.3,28.9,29.65,WNW,292,0.0,6.7,84,0.00,,,0.04,WUHU21623XXSP,2013-03-01 08:41:00,
2013-03-01 03:46:00,32.9,28.9,29.65,WNW,292,0.0,6.7,85,0.00,,,0.04,WUHU21623XXSP,2013-03-01 08:46:00,
2013-03-01 03:51:00,33.1,29.0,29.65,WNW,292,0.0,8.5,85,0.00,,,0.04,WUHU21623XXSP,2013-03-01 08:51:00,
2013-03-01 03:56:00,33.4,29.3,29.65,WNW,292,0.0,8.5,85,0.00,,,0.04,WUHU21623XXSP,2013-03-01 08:56:00,
2013-03-01 04:01:00,33.1,29.0,29.65,WNW,292,0.0,7.2,85,0.00,,,0.04,WUHU21623XXSP,2013-03-01 09:01:00,
2013-03-01 04:06:00,32.9,28.6,29.65,WNW,292,2.7,8.9,84,0.00,,,0.04,WUHU21623XXSP,2013-03-01 09:06:00,
2013-03-01 04:11:00,32.9,28.6,29.65,West,270,0.0,8.9,84,0.00,,,0.04,WUHU21623XXSP,2013-03-01 09:11:00,
2013-03-01 04:16:00,32.9,28.3,29.66,West,270,4.0,7.6,83,0.00,,,0.04,WUHU21623XXSP,2013-03-01 09:16:00,
2013-03-01 04:21:00,32.9,28.3,29.66,NW,315,2.9,8.1,83,0.00,,,0.04,WUHU21623XXSP,2013-03-01 09:21:00,
2013-03-01 04:27:00,33.1,28.4,29.66,WNW,292,5.1,10.3,83,0.00,,,0.04,WUHU21623XXSP,2013-03-01 09:27:00,
2013-03-01 04:32:00,32.9,28.0,29.66,West,270,5.8,10.3,82,0.00,,,0.04,WUHU21623XXSP,2013-03-01 09:32:00,
2013-03-01 04:37:00,33.1,28.4,29.66,WNW,292,4.0,10.1,83,0.00,,,0.04,WUHU21623XXSP,2013-03-01 09:37:00,
2013-03-01 04:42:00,32.7,27.8,29.66,WNW,292,5.6,7.8,82,0.00,,,0.04,WUHU21623XXSP,2013-03-01 09:42:00,
2013-03-01 04:47:00,32.7,27.8,29.66,WNW,292,6.3,7.8,83,0.00,,,0.04,WUHU21623XXSP,2013-03-01 09:47:00,
2013-03-01 04:52:00,32.5,27.9,29.66,WNW,292,2.7,6.3,83,0.00,,,0.04,WUHU21623XXSP,2013-03-01 09:52:00,
2013-03-01 04:57:00,32.5,27.9,29.66,NW,315,3.8,7.2,83,0.00,,,0.04,WUHU21623XXSP,2013-03-01 09:57:00,
2013-03-01 05:02:00,32.4,27.8,29.66,WNW,292,3.4,7.2,83,0.00,,,0.04,WUHU21623XXSP,2013-03-01 10:02:00,
2013-03-01 05:07:00,32.4,27.8,29.66,NW,315,4.7,10.1,83,0.00,,,0.04,WUHU21623XXSP,2013-03-01 10:07:00,
2013-03-01 05:12:00,32.4,27.8,29.66,WNW,292,2.2,11.2,83,0.00,,,0.04,WUHU21623XXSP,2013-03-01 10:12:00,
2013-03-01 05:17:00,32.2,27.6,29.66,West,270,3.4,11.2,83,0.00,,,0.04,WUHU21623XXSP,2013-03-01 10:17:00,
2013-03-01 05:22:00,32.4,27.8,29.66,WNW,292,4.3,7.4,83,0.00,,,0.04,WUHU21623XXSP,2013-03-01 10:22:00,
2013-03-01 05:27:00,32.2,27.6,29.66,WNW,292,6.7,7.4,83,0.00,,,0.04,WUHU21623XXSP,2013-03-01 10:27:00,
2013-03-01 05:32:00,32.2,27.6,29.67,West,270,4.0,8.9,83,0.00,,,0.04,WUHU21623XXSP,2013-03-01 10:32:00,
2013-03-01 05:37:00,32.2,27.6,29.66,WNW,292,5.1,8.9,83,0.00,,,0.04,WUHU21623XXSP,2013-03-01 10:37:00,
2013-03-01 05:42:00,31.8,27.3,29.67,NW,315,7.4,8.3,83,0.00,,,0.04,WUHU21623XXSP,2013-03-01 10:42:00,
2013-03-01 05:47:00,31.8,27.3,29.67,NW,315,3.1,7.4,83,0.00,,,0.04,WUHU21623XXSP,2013-03-01 10:47:00,
2013-03-01 05:52:00,31.8,27.3,29.67,West,270,5.6,7.4,83,0.00,,,0.04,WUHU21623XXSP,2013-03-01 10:52:00,
2013-03-01 05:57:00,31.8,27.3,29.67,WNW,292,1.3,6.3,83,0.00,,,0.04,WUHU21623XXSP,2013-03-01 10:57:00,
2013-03-01 06:02:00,31.8,27.6,29.67,WNW,292,1.1,5.6,84,0.00,,,0.04,WUHU21623XXSP,2013-03-01 11:02:00,
2013-03-01 06:07:00,31.6,27.1,29.67,WNW,292,3.1,5.6,83,0.00,,,0.04,WUHU21623XXSP,2013-03-01 11:07:00,
2013-03-01 06:12:00,31.6,27.1,29.68,WNW,292,2.0,6.0,83,0.00,,,0.04,WUHU21623XXSP,2013-03-01 11:12:00,
2013-03-01 06:17:00,31.6,27.1,29.68,WNW,292,4.3,6.9,83,0.00,,,0.04,WUHU21623XXSP,2013-03-01 11:17:00,
2013-03-01 06:22:00,31.6,27.1,29.68,WNW,292,1.8,6.9,83,0.00,,,0.04,WUHU21623XXSP,2013-03-01 11:22:00,
2013-03-01 06:27:00,31.3,26.7,29.68,WNW,292,5.6,5.6,83,0.00,,,0.04,WUHU21623XXSP,2013-03-01 11:27:00,
2013-03-01 06:32:00,31.3,26.7,29.68,WNW,292,0.0,6.0,83,0.00,,,0.04,WUHU21623XXSP,2013-03-01 11:32:00,
2013-03-01 06:37:00,31.1,26.6,29.68,WNW,292,2.9,6.9,83,0.00,,,0.04,WUHU21623XXSP,2013-03-01 11:37:00,
2013-03-01 06:42:00,31.3,26.7,29.69,WNW,292,2.9,6.9,83,0.00,,,0.04,WUHU21623XXSP,2013-03-01 11:42:00,
2013-03-01 06:47:00,31.6,27.1,29.69,NNW,337,4.0,5.8,83,0.00,,,0.04,WUHU21623XXSP,2013-03-01 11:47:00,
2013-03-01 06:52:00,31.6,27.1,29.69,NW,315,3.4,7.2,83,0.00,,,0.04,WUHU21623XXSP,2013-03-01 11:52:00,
2013-03-01 06:57:00,31.6,26.8,29.69,WNW,292,4.3,7.4,82,0.00,,,0.04,WUHU21623XXSP,2013-03-01 11:57:00,
2013-03-01 07:02:00,31.8,26.7,29.69,West,270,0.0,7.4,81,0.00,,,0.04,WUHU21623XXSP,2013-03-01 12:02:00,
2013-03-01 07:07:00,31.6,26.5,29.69,WSW,247,2.9,6.7,81,0.00,,,0.04,WUHU21623XXSP,2013-03-01 12:07:00,
2013-03-01 07:12:00,31.8,26.7,29.69,WNW,292,4.5,6.9,81,0.00,,,0.04,WUHU21623XXSP,2013-03-01 12:12:00,
2013-03-01 07:17:00,31.6,26.5,29.69,WNW,292,1.3,6.9,81,0.00,,,0.04,WUHU21623XXSP,2013-03-01 12:17:00,
2013-03-01 07:22:00,32.2,27.3,29.69,WNW,292,0.0,5.4,82,0.00,,,0.04,WUHU21623XXSP,2013-03-01 12:22:00,
2013-03-01 07:27:00,31.8,26.4,29.70,WNW,292,0.0,4.9,80,0.00,,,0.04,WUHU21623XXSP,2013-03-01 12:27:00,
2013-03-01 07:32:00,31.8,26.7,29.70,WNW,292,0.0,6.3,81,0.00,,,0.04,WUHU21623XXSP,2013-03-01 12:32:00,
2013-03-01 07:37:00,31.8,26.4,29.70,West,270,1.3,6.3,80,0.00,,,0.04,WUHU21623XXSP,2013-03-01 12:37:00,
2013-03-01 07:42:00,32.0,26.8,29.70,WNW,292,3.4,6.0,80,0.00,,,0.04,WUHU21623XXSP,2013-03-01 12:42:00,
2013-03-01 07:47:00,32.4,26.9,29.70,WNW,292,2.0,7.8,80,0.00,,,0.04,WUHU21623XXSP,2013-03-01 12:47:00,
2013-03-01 07:52:00,32.5,26.8,29.70,WNW,292,0.0,7.8,79,0.00,,,0.04,WUHU21623XXSP,2013-03-01 12:52:00,
2013-03-01 07:57:00,32.7,26.6,29.71,WNW,292,0.0,8.5,78,0.00,,,0.04,WUHU21623XXSP,2013-03-01 12:57:00,
2013-03-01 08:02:00,32.7,26.6,29.71,WNW,292,0.0,8.5,78,0.00,,,0.04,WUHU21623XXSP,2013-03-01 13:02:00,
2013-03-01 08:07:00,33.1,27.2,29.71,WSW,247,0.0,5.4,79,0.00,,,0.04,WUHU21623XXSP,2013-03-01 13:07:00,
2013-03-01 08:12:00,32.9,26.8,29.71,WNW,292,2.9,8.5,78,0.00,,,0.04,WUHU21623XXSP,2013-03-01 13:12:00,
2013-03-01 08:17:00,32.9,26.8,29.71,NNW,337,6.9,10.7,78,0.00,,,0.04,WUHU21623XXSP,2013-03-01 13:17:00,
2013-03-01 08:22:00,33.1,26.9,29.71,WNW,292,0.0,10.7,78,0.00,,,0.04,WUHU21623XXSP,2013-03-01 13:22:00,
2013-03-01 08:27:00,33.4,27.2,29.71,WNW,292,0.0,5.8,78,0.00,,,0.04,WUHU21623XXSP,2013-03-01 13:27:00,
2013-03-01 08:32:00,33.4,27.2,29.71,WSW,247,0.9,6.0,78,0.00,,,0.04,WUHU21623XXSP,2013-03-01 13:32:00,
2013-03-01 08:37:00,33.3,26.8,29.71,West,270,5.1,6.9,77,0.00,,,0.04,WUHU21623XXSP,2013-03-01 13:37:00,
2013-03-01 08:42:00,33.4,26.9,29.71,West,270,4.0,7.4,77,0.00,,,0.04,WUHU21623XXSP,2013-03-01 13:42:00,
2013-03-01 08:47:00,33.4,26.6,29.71,West,270,2.7,7.4,76,0.00,,,0.04,WUHU21623XXSP,2013-03-01 13:47:00,
2013-03-01 08:52:00,33.6,26.8,29.71,WNW,292,2.5,7.2,76,0.00,,,0.04,WUHU21623XXSP,2013-03-01 13:52:00,
2013-03-01 08:57:00,33.6,26.4,29.71,WNW,292,4.5,8.7,75,0.00,,,0.04,WUHU21623XXSP,2013-03-01 13:57:00,
2013-03-01 09:02:00,33.4,26.3,29.72,WNW,292,2.7,8.7,75,0.00,,,0.04,WUHU21623XXSP,2013-03-01 14:02:00,
2013-03-01 09:07:00,33.6,26.4,29.72,West,270,2.2,9.2,75,0.00,,,0.04,WUHU21623XXSP,2013-03-01 14:07:00,
2013-03-01 09:12:00,33.4,26.3,29.72,NW,315,5.4,9.2,75,0.00,,,0.04,WUHU21623XXSP,2013-03-01 14:12:00,
2013-03-01 09:17:00,33.3,26.1,29.72,WNW,292,2.7,6.7,75,0.00,,,0.04,WUHU21623XXSP,2013-03-01 14:17:00,
2013-03-01 09:22:00,33.3,26.1,29.72,WNW,292,4.5,8.5,75,0.00,,,0.04,WUHU21623XXSP,2013-03-01 14:22:00,
2013-03-01 09:27:00,33.1,26.3,29.72,West,270,2.0,8.5,76,0.00,,,0.04,WUHU21623XXSP,2013-03-01 14:27:00,
2013-03-01 09:32:00,33.1,26.3,29.72,West,270,0.0,6.9,76,0.00,,,0.04,WUHU21623XXSP,2013-03-01 14:32:00,
2013-03-01 09:37:00,33.4,27.2,29.72,West,270,0.0,4.7,78,0.00,,,0.04,WUHU21623XXSP,2013-03-01 14:37:00,
2013-03-01 09:42:00,33.3,26.8,29.72,NW,315,3.1,6.9,77,0.00,,,0.04,WUHU21623XXSP,2013-03-01 14:42:00,
2013-03-01 09:47:00,33.3,26.4,29.73,WNW,292,1.8,6.9,76,0.00,,,0.04,WUHU21623XXSP,2013-03-01 14:47:00,
2013-03-01 09:52:00,33.4,26.6,29.73,WNW,292,0.0,8.5,76,0.00,,,0.04,WUHU21623XXSP,2013-03-01 14:52:00,
2013-03-01 09:57:00,33.4,26.6,29.72,WNW,292,3.8,8.5,76,0.00,,,0.04,WUHU21623XXSP,2013-03-01 14:57:00,
2013-03-01 10:02:00,33.6,26.8,29.73,WNW,292,3.1,8.9,76,0.00,,,0.04,WUHU21623XXSP,2013-03-01 15:02:00,
2013-03-01 10:07:00,33.6,26.8,29.74,WNW,292,3.4,8.9,76,0.00,,,0.04,WUHU21623XXSP,2013-03-01 15:07:00,
2013-03-01 10:12:00,33.4,26.6,29.74,NW,315,3.8,9.4,76,0.00,,,0.04,WUHU21623XXSP,2013-03-01 15:12:00,
2013-03-01 10:17:00,33.1,26.3,29.74,WNW,292,3.1,9.4,76,0.00,,,0.04,WUHU21623XXSP,2013-03-01 15:17:00,
2013-03-01 10:22:00,33.1,26.3,29.74,NW,315,3.6,8.9,76,0.00,,,0.04,WUHU21623XXSP,2013-03-01 15:22:00,
2013-03-01 10:27:00,33.1,26.3,29.74,WNW,292,2.0,7.4,76,0.00,,,0.04,WUHU21623XXSP,2013-03-01 15:27:00,
2013-03-01 10:32:00,32.9,26.1,29.74,WNW,292,4.9,7.4,76,0.00,,,0.04,WUHU21623XXSP,2013-03-01 15:32:00,
2013-03-01 10:37:00,32.9,26.1,29.73,WNW,292,3.1,7.4,76,0.00,,,0.04,WUHU21623XXSP,2013-03-01 15:37:00,
2013-03-01 10:42:00,32.9,26.1,29.73,WNW,292,5.8,7.6,76,0.00,,,0.04,WUHU21623XXSP,2013-03-01 15:42:00,
2013-03-01 10:47:00,32.9,26.1,29.74,WNW,292,2.7,7.6,76,0.00,,,0.04,WUHU21623XXSP,2013-03-01 15:47:00,
2013-03-01 10:52:00,33.1,26.3,29.73,WNW,292,2.9,7.6,76,0.00,,,0.04,WUHU21623XXSP,2013-03-01 15:52:00,
2013-03-01 10:57:00,33.3,26.1,29.73,West,270,4.7,7.6,75,0.00,,,0.04,WUHU21623XXSP,2013-03-01 15:57:00,
2013-03-01 11:02:00,33.4,26.3,29.74,West,270,2.0,6.9,75,0.00,,,0.04,WUHU21623XXSP,2013-03-01 16:02:00,
2013-03-01 11:07:00,33.6,26.1,29.74,WNW,292,4.3,6.9,74,0.00,,,0.04,WUHU21623XXSP,2013-03-01 16:07:00,
2013-03-01 11:12:00,33.6,25.8,29.74,WNW,292,6.5,6.9,73,0.00,,,0.04,WUHU21623XXSP,2013-03-01 16:12:00,
2013-03-01 11:17:00,33.8,26.0,29.74,West,270,0.0,6.5,73,0.00,,,0.04,WUHU21623XXSP,2013-03-01 16:17:00,
2013-03-01 11:22:00,34.0,26.1,29.74,NW,315,0.0,5.1,73,0.00,,,0.04,WUHU21623XXSP,2013-03-01 16:22:00,
2013-03-01 11:27:00,34.0,26.1,29.74,NW,315,3.1,6.5,73,0.00,,,0.04,WUHU21623XXSP,2013-03-01 16:27:00,
2013-03-01 11:32:00,33.8,25.6,29.74,WNW,292,1.6,11.9,72,0.00,,,0.04,WUHU21623XXSP,2013-03-01 16:32:00,
2013-03-01 11:37:00,33.6,25.5,29.74,NW,315,1.8,11.9,72,0.00,,,0.04,WUHU21623XXSP,2013-03-01 16:37:00,
2013-03-01 11:42:00,33.3,25.1,29.74,WNW,292,3.8,10.3,72,0.00,,,0.04,WUHU21623XXSP,2013-03-01 16:42:00,
2013-03-01 11:47:00,33.4,25.3,29.75,West,270,3.1,8.9,72,0.00,,,0.04,WUHU21623XXSP,2013-03-01 16:47:00,
2013-03-01 11:52:00,33.4,25.6,29.75,North,0,7.2,8.9,73,0.00,,,0.04,WUHU21623XXSP,2013-03-01 16:52:00,
2013-03-01 11:57:00,33.3,25.1,29.74,NW,315,5.6,10.7,72,0.00,,,0.04,WUHU21623XXSP,2013-03-01 16:57:00,
2013-03-01 12:02:00,33.6,25.8,29.74,WNW,292,2.5,10.7,73,0.00,,,0.04,WUHU21623XXSP,2013-03-01 17:02:00,
2013-03-01 12:07:00,34.3,25.8,29.74,West,270,5.4,7.6,71,0.00,,,0.04,WUHU21623XXSP,2013-03-01 17:07:00,
2013-03-01 12:12:00,34.5,25.7,29.74,WNW,292,6.7,7.6,70,0.00,,,0.04,WUHU21623XXSP,2013-03-01 17:12:00,
2013-03-01 12:17:00,34.9,25.7,29.74,NNW,337,2.2,14.1,69,0.00,,,0.04,WUHU21623XXSP,2013-03-01 17:17:00,
2013-03-01 12:22:00,34.9,25.7,29.74,NNW,337,2.2,14.1,69,0.00,,,0.04,WUHU21623XXSP,2013-03-01 17:22:00,
2013-03-01 12:27:00,35.2,26.1,29.74,WNW,292,2.9,7.4,69,0.00,,,0.04,WUHU21623XXSP,2013-03-01 17:27:00,
2013-03-01 12:32:00,35.2,25.7,29.74,WNW,292,0.0,7.4,68,0.00,,,0.04,WUHU21623XXSP,2013-03-01 17:32:00,
2013-03-01 12:37:00,35.4,25.5,29.73,WNW,292,0.0,7.2,67,0.00,,,0.04,WUHU21623XXSP,2013-03-01 17:37:00,
2013-03-01 12:42:00,35.8,25.9,29.73,West,270,1.3,6.9,67,0.00,,,0.04,WUHU21623XXSP,2013-03-01 17:42:00,
2013-03-01 12:47:00,35.8,25.9,29.73,WNW,292,7.2,10.5,67,0.00,,,0.04,WUHU21623XXSP,2013-03-01 17:47:00,
2013-03-01 12:52:00,35.8,25.5,29.73,WNW,292,1.8,10.5,66,0.00,,,0.04,WUHU21623XXSP,2013-03-01 17:52:00,
2013-03-01 12:57:00,35.8,25.5,29.72,WNW,292,4.0,9.8,67,0.02,,,0.06,WUHU21623XXSP,2013-03-01 17:57:00,
2013-03-01 13:02:00,35.8,25.5,29.72,NW,315,3.6,9.8,66,0.02,,,0.06,WUHU21623XXSP,2013-03-01 18:02:00,
2013-03-01 13:07:00,35.4,25.2,29.72,WNW,292,2.2,10.1,66,0.02,,,0.06,WUHU21623XXSP,2013-03-01 18:07:00,
2013-03-01 13:12:00,35.6,25.3,29.72,West,270,0.0,10.1,66,0.02,,,0.06,WUHU21623XXSP,2013-03-01 18:12:00,
2013-03-01 13:17:00,35.8,25.5,29.72,West,270,0.0,7.8,66,0.02,,,0.06,WUHU21623XXSP,2013-03-01 18:17:00,
2013-03-01 13:22:00,35.8,25.5,29.72,WNW,292,2.0,11.0,66,0.02,,,0.06,WUHU21623XXSP,2013-03-01 18:22:00,
2013-03-01 13:27:00,35.4,24.8,29.72,WSW,247,0.0,11.0,65,0.02,,,0.06,WUHU21623XXSP,2013-03-01 18:27:00,
2013-03-01 13:32:00,35.4,25.5,29.72,WSW,247,0.0,10.1,67,0.02,,,0.06,WUHU21623XXSP,2013-03-01 18:32:00,
2013-03-01 13:37:00,35.8,25.9,29.73,WNW,292,5.1,9.4,67,0.02,,,0.06,WUHU21623XXSP,2013-03-01 18:37:00,
2013-03-01 13:42:00,35.8,25.9,29.72,West,270,0.0,6.9,67,0.02,,,0.06,WUHU21623XXSP,2013-03-01 18:42:00,
2013-03-01 13:47:00,35.8,25.5,29.72,WNW,292,1.6,6.9,66,0.02,,,0.06,WUHU21623XXSP,2013-03-01 18:47:00,
2013-03-01 13:52:00,35.8,25.9,29.72,WNW,292,2.9,6.9,67,0.02,,,0.06,WUHU21623XXSP,2013-03-01 18:52:00,
2013-03-01 13:57:00,35.6,25.7,29.72,NW,315,5.8,7.8,67,0.00,,,0.06,WUHU21623XXSP,2013-03-01 18:57:00,
2013-03-01 14:02:00,35.4,25.5,29.72,WNW,292,0.0,10.7,67,0.00,,,0.06,WUHU21623XXSP,2013-03-01 19:02:00,
2013-03-01 14:07:00,35.4,25.5,29.72,WNW,292,6.5,10.7,67,0.00,,,0.06,WUHU21623XXSP,2013-03-01 19:07:00,
2013-03-01 14:12:00,35.4,24.8,29.72,West,270,4.5,10.7,65,0.00,,,0.06,WUHU21623XXSP,2013-03-01 19:12:00,
2013-03-01 14:17:00,35.4,25.2,29.72,NW,315,5.8,10.7,66,0.00,,,0.06,WUHU21623XXSP,2013-03-01 19:17:00,
2013-03-01 14:22:00,35.4,25.5,29.72,West,270,0.0,10.1,67,0.00,,,0.06,WUHU21623XXSP,2013-03-01 19:22:00,
2013-03-01 14:27:00,35.4,25.5,29.72,NW,315,3.8,6.7,67,0.00,,,0.06,WUHU21623XXSP,2013-03-01 19:27:00,
2013-03-01 14:32:00,35.2,25.3,29.72,WNW,292,3.6,9.6,67,0.00,,,0.06,WUHU21623XXSP,2013-03-01 19:32:00,
2013-03-01 14:37:00,34.9,25.0,29.72,NNW,337,4.3,9.6,67,0.00,,,0.06,WUHU21623XXSP,2013-03-01 19:37:00,
2013-03-01 14:42:00,34.9,25.0,29.73,West,270,5.6,10.1,67,0.00,,,0.06,WUHU21623XXSP,2013-03-01 19:42:00,
2013-03-01 14:47:00,34.7,24.8,29.73,NW,315,3.8,10.1,67,0.00,,,0.06,WUHU21623XXSP,2013-03-01 19:47:00,
2013-03-01 14:52:00,34.5,25.0,29.73,WNW,292,0.0,8.5,68,0.00,,,0.06,WUHU21623XXSP,2013-03-01 19:52:00,
2013-03-01 14:57:00,34.5,25.0,29.74,WNW,292,3.1,8.1,68,0.00,,,0.06,WUHU21623XXSP,2013-03-01 19:57:00,
2013-03-01 15:02:00,34.5,25.3,29.73,WNW,292,5.1,6.5,69,0.00,,,0.06,WUHU21623XXSP,2013-03-01 20:02:00,
2013-03-01 15:07:00,34.7,25.2,29.74,WNW,292,0.0,7.2,68,0.00,,,0.06,WUHU21623XXSP,2013-03-01 20:07:00,
2013-03-01 15:12:00,34.5,25.0,29.74,NW,315,4.5,8.3,68,0.00,,,0.06,WUHU21623XXSP,2013-03-01 20:12:00,
2013-03-01 15:17:00,34.3,24.4,29.74,West,270,2.9,8.9,67,0.00,,,0.06,WUHU21623XXSP,2013-03-01 20:17:00,
2013-03-01 15:22:00,34.5,25.0,29.74,West,270,5.4,8.9,68,0.00,,,0.06,WUHU21623XXSP,2013-03-01 20:22:00,
2013-03-01 15:27:00,34.3,24.8,29.74,WNW,292,0.0,6.7,68,0.00,,,0.06,WUHU21623XXSP,2013-03-01 20:27:00,
2013-03-01 15:32:00,34.3,25.2,29.74,West,270,1.6,6.7,69,0.00,,,0.06,WUHU21623XXSP,2013-03-01 20:32:00,
2013-03-01 15:37:00,34.3,25.2,29.74,NW,315,4.3,6.7,69,0.00,,,0.06,WUHU21623XXSP,2013-03-01 20:37:00,
2013-03-01 15:42:00,34.3,25.2,29.74,WNW,292,4.0,8.3,69,0.00,,,0.06,WUHU21623XXSP,2013-03-01 20:42:00,
2013-03-01 15:47:00,34.3,25.2,29.74,WNW,292,6.7,8.3,69,0.00,,,0.06,WUHU21623XXSP,2013-03-01 20:47:00,
2013-03-01 15:52:00,34.2,24.6,29.75,West,270,0.0,8.3,68,0.00,,,0.06,WUHU21623XXSP,2013-03-01 20:52:00,
2013-03-01 15:57:00,34.0,24.8,29.74,WNW,292,2.5,8.1,69,0.00,,,0.06,WUHU21623XXSP,2013-03-01 20:57:00,
2013-03-01 16:02:00,34.0,24.8,29.74,WNW,292,7.4,8.1,69,0.00,,,0.06,WUHU21623XXSP,2013-03-01 21:02:00,
2013-03-01 16:07:00,33.8,24.6,29.74,West,270,2.9,7.4,69,0.00,,,0.06,WUHU21623XXSP,2013-03-01 21:07:00,
2013-03-01 16:12:00,33.6,24.5,29.74,WNW,292,2.7,8.3,69,0.00,,,0.06,WUHU21623XXSP,2013-03-01 21:12:00,
2013-03-01 16:17:00,33.6,24.8,29.75,WNW,292,0.0,9.6,70,0.00,,,0.06,WUHU21623XXSP,2013-03-01 21:17:00,
2013-03-01 16:22:00,33.6,24.8,29.75,WNW,292,1.6,9.6,70,0.00,,,0.06,WUHU21623XXSP,2013-03-01 21:22:00,
2013-03-01 16:27:00,33.4,24.7,29.75,WNW,292,2.0,6.5,70,0.00,,,0.06,WUHU21623XXSP,2013-03-01 21:27:00,
2013-03-01 16:32:00,33.4,24.7,29.75,West,270,4.0,6.9,70,0.00,,,0.06,WUHU21623XXSP,2013-03-01 21:32:00,
2013-03-01 16:37:00,33.4,24.7,29.75,NW,315,0.0,6.9,70,0.00,,,0.06,WUHU21623XXSP,2013-03-01 21:37:00,
2013-03-01 16:42:00,33.3,24.5,29.75,WSW,247,0.0,6.3,70,0.00,,,0.06,WUHU21623XXSP,2013-03-01 21:42:00,
2013-03-01 16:47:00,33.3,24.5,29.75,West,270,2.9,8.1,70,0.00,,,0.06,WUHU21623XXSP,2013-03-01 21:47:00,
2013-03-01 16:52:00,33.1,24.7,29.76,WNW,292,0.0,9.2,71,0.00,,,0.06,WUHU21623XXSP,2013-03-01 21:52:00,
2013-03-01 16:57:00,32.9,24.5,29.76,West,270,0.0,9.2,71,0.00,,,0.06,WUHU21623XXSP,2013-03-01 21:57:00,
2013-03-01 17:02:00,32.7,24.7,29.76,NW,315,0.0,6.7,72,0.00,,,0.06,WUHU21623XXSP,2013-03-01 22:02:00,
2013-03-01 17:07:00,32.7,25.0,29.76,NW,315,0.0,6.5,73,0.00,,,0.06,WUHU21623XXSP,2013-03-01 22:07:00,
2013-03-01 17:12:00,33.1,25.3,29.77,West,270,0.0,5.4,73,0.00,,,0.06,WUHU21623XXSP,2013-03-01 22:12:00,
2013-03-01 17:17:00,32.9,25.1,29.76,WNW,292,0.0,5.4,73,0.00,,,0.06,WUHU21623XXSP,2013-03-01 22:17:00,
2013-03-01 17:22:00,32.9,25.1,29.76,West,270,4.5,4.9,73,0.00,,,0.06,WUHU21623XXSP,2013-03-01 22:22:00,
2013-03-01 17:27:00,32.7,24.7,29.76,WNW,292,0.0,8.5,72,0.00,,,0.06,WUHU21623XXSP,2013-03-01 22:27:00,
2013-03-01 17:32:00,32.5,24.5,29.77,NW,315,0.0,8.5,72,0.00,,,0.06,WUHU21623XXSP,2013-03-01 22:32:00,
2013-03-01 17:37:00,32.5,24.5,29.77,WNW,292,0.0,6.9,72,0.00,,,0.06,WUHU21623XXSP,2013-03-01 22:37:00,
2013-03-01 17:42:00,32.5,24.5,29.77,WNW,292,0.0,6.9,72,0.00,,,0.06,WUHU21623XXSP,2013-03-01 22:42:00,
2013-03-01 17:47:00,32.5,24.8,29.77,WNW,292,2.0,5.8,73,0.00,,,0.06,WUHU21623XXSP,2013-03-01 22:47:00,
2013-03-01 17:52:00,32.4,24.7,29.77,West,270,0.0,6.9,73,0.00,,,0.06,WUHU21623XXSP,2013-03-01 22:52:00,
2013-03-01 17:57:00,32.4,24.7,29.77,West,270,0.0,7.6,73,0.00,,,0.06,WUHU21623XXSP,2013-03-01 22:57:00,
2013-03-01 18:02:00,32.4,25.0,29.77,West,270,0.0,7.6,74,0.00,,,0.06,WUHU21623XXSP,2013-03-01 23:02:00,
2013-03-01 18:07:00,32.2,24.8,29.78,WNW,292,3.4,3.4,74,0.00,,,0.06,WUHU21623XXSP,2013-03-01 23:07:00,
2013-03-01 18:12:00,32.2,24.8,29.77,WNW,292,0.0,4.5,74,0.00,,,0.06,WUHU21623XXSP,2013-03-01 23:12:00,
2013-03-01 18:17:00,32.2,24.8,29.78,WNW,292,2.2,5.1,74,0.00,,,0.06,WUHU21623XXSP,2013-03-01 23:17:00,
2013-03-01 18:22:00,32.2,24.8,29.77,WNW,292,3.8,8.9,74,0.00,,,0.06,WUHU21623XXSP,2013-03-01 23:22:00,
2013-03-01 18:27:00,32.2,24.8,29.78,WNW,292,0.0,8.9,74,0.00,,,0.06,WUHU21623XXSP,2013-03-01 23:27:00,
2013-03-01 18:32:00,32.2,24.8,29.78,WNW,292,3.4,7.6,74,0.00,,,0.06,WUHU21623XXSP,2013-03-01 23:32:00,
2013-03-01 18:37:00,32.2,24.8,29.78,WNW,292,5.4,7.2,74,0.00,,,0.06,WUHU21623XXSP,2013-03-01 23:37:00,
2013-03-01 18:42:00,32.0,24.7,29.78,WNW,292,2.5,7.2,74,0.00,,,0.06,WUHU21623XXSP,2013-03-01 23:42:00,
2013-03-01 18:47:00,31.8,24.5,29.78,WNW,292,0.0,6.5,74,0.00,,,0.06,WUHU21623XXSP,2013-03-01 23:47:00,
2013-03-01 18:52:00,31.8,24.8,29.78,WNW,292,0.4,6.5,75,0.00,,,0.06,WUHU21623XXSP,2013-03-01 23:52:00,
2013-03-01 18:57:00,32.2,25.8,29.78,WNW,292,3.8,3.8,77,0.00,,,0.06,WUHU21623XXSP,2013-03-01 23:57:00,
2013-03-01 19:02:00,31.8,25.1,29.78,WNW,292,1.6,3.8,76,0.00,,,0.06,WUHU21623XXSP,2013-03-02 00:02:00,
2013-03-01 19:07:00,31.8,24.8,29.78,WNW,292,1.6,6.0,75,0.00,,,0.06,WUHU21623XXSP,2013-03-02 00:07:00,
2013-03-01 19:12:00,31.6,24.9,29.78,West,270,0.0,6.0,76,0.00,,,0.06,WUHU21623XXSP,2013-03-02 00:12:00,
2013-03-01 19:17:00,31.8,25.4,29.78,WNW,292,2.2,7.6,77,0.00,,,0.06,WUHU21623XXSP,2013-03-02 00:17:00,
2013-03-01 19:22:00,31.6,24.9,29.78,West,270,0.0,7.8,76,0.00,,,0.06,WUHU21623XXSP,2013-03-02 00:22:00,
2013-03-01 19:27:00,31.8,25.4,29.78,West,270,2.2,7.8,77,0.00,,,0.06,WUHU21623XXSP,2013-03-02 00:27:00,
2013-03-01 19:32:00,31.6,25.3,29.78,WNW,292,5.1,6.9,77,0.00,,,0.06,WUHU21623XXSP,2013-03-02 00:32:00,
2013-03-01 19:37:00,31.6,25.3,29.79,West,270,0.0,6.9,77,0.00,,,0.06,WUHU21623XXSP,2013-03-02 00:37:00,
2013-03-01 19:42:00,31.5,25.1,29.78,WNW,292,0.0,6.7,77,0.00,,,0.06,WUHU21623XXSP,2013-03-02 00:42:00,
2013-03-01 19:47:00,31.3,25.2,29.78,WNW,292,1.1,6.7,78,0.00,,,0.06,WUHU21623XXSP,2013-03-02 00:47:00,
2013-03-01 19:52:00,31.3,25.2,29.78,NNW,337,1.6,5.8,78,0.00,,,0.06,WUHU21623XXSP,2013-03-02 00:52:00,
2013-03-01 19:57:00,31.1,25.1,29.78,WNW,292,0.0,6.7,78,0.00,,,0.06,WUHU21623XXSP,2013-03-02 00:57:00,
2013-03-01 20:02:00,31.1,25.1,29.79,WNW,292,1.3,6.7,78,0.00,,,0.06,WUHU21623XXSP,2013-03-02 01:02:00,
2013-03-01 20:07:00,31.1,25.1,29.78,WNW,292,1.1,7.2,78,0.00,,,0.06,WUHU21623XXSP,2013-03-02 01:07:00,
2013-03-01 20:12:00,30.9,24.9,29.78,West,270,0.0,7.2,78,0.00,,,0.06,WUHU21623XXSP,2013-03-02 01:12:00,
2013-03-01 20:17:00,31.1,25.1,29.78,WNW,292,3.6,6.5,78,0.00,,,0.06,WUHU21623XXSP,2013-03-02 01:17:00,
2013-03-01 20:22:00,31.1,25.1,29.79,WNW,292,0.2,6.5,78,0.00,,,0.06,WUHU21623XXSP,2013-03-02 01:22:00,
2013-03-01 20:27:00,31.1,25.1,29.79,WNW,292,1.3,5.4,78,0.00,,,0.06,WUHU21623XXSP,2013-03-02 01:27:00,
2013-03-01 20:32:00,30.9,24.9,29.78,West,270,0.0,5.4,78,0.00,,,0.06,WUHU21623XXSP,2013-03-02 01:32:00,
2013-03-01 20:37:00,30.9,24.9,29.79,WNW,292,2.9,5.4,78,0.00,,,0.06,WUHU21623XXSP,2013-03-02 01:37:00,
2013-03-01 20:42:00,30.9,24.9,29.78,WNW,292,0.0,4.9,78,0.00,,,0.06,WUHU21623XXSP,2013-03-02 01:42:00,
2013-03-01 20:47:00,30.9,24.9,29.79,WNW,292,0.0,7.8,78,0.00,,,0.06,WUHU21623XXSP,2013-03-02 01:47:00,
2013-03-01 20:52:00,30.9,24.9,29.79,West,270,0.0,7.8,78,0.00,,,0.06,WUHU21623XXSP,2013-03-02 01:52:00,
2013-03-01 20:57:00,30.7,24.7,29.79,WNW,292,1.6,6.7,78,0.00,,,0.06,WUHU21623XXSP,2013-03-02 01:57:00,
2013-03-01 21:02:00,30.7,24.7,29.79,WNW,292,0.0,4.7,78,0.00,,,0.06,WUHU21623XXSP,2013-03-02 02:02:00,
2013-03-01 21:07:00,30.9,24.9,29.78,WNW,292,0.0,6.7,78,0.00,,,0.06,WUHU21623XXSP,2013-03-02 02:07:00,
2013-03-01 21:12:00,30.7,24.7,29.78,WNW,292,2.5,6.7,78,0.00,,,0.06,WUHU21623XXSP,2013-03-02 02:12:00,
2013-03-01 21:17:00,30.6,24.5,29.78,West,270,1.6,5.4,78,0.00,,,0.06,WUHU21623XXSP,2013-03-02 02:17:00,
2013-03-01 21:22:00,30.6,24.5,29.78,West,270,3.4,5.4,78,0.00,,,0.06,WUHU21623XXSP,2013-03-02 02:22:00,
2013-03-01 21:27:00,30.6,24.5,29.79,WNW,292,3.4,5.8,78,0.00,,,0.06,WUHU21623XXSP,2013-03-02 02:27:00,
2013-03-01 21:32:00,30.4,24.7,29.79,NW,315,0.0,5.8,79,0.00,,,0.06,WUHU21623XXSP,2013-03-02 02:32:00,
2013-03-01 21:37:00,30.4,24.3,29.79,West,270,0.0,6.3,78,0.00,,,0.06,WUHU21623XXSP,2013-03-02 02:37:00,
2013-03-01 21:42:00,30.7,25.0,29.78,WNW,292,4.0,6.3,79,0.00,,,0.06,WUHU21623XXSP,2013-03-02 02:42:00,
2013-03-01 21:47:00,30.6,24.5,29.78,WNW,292,3.6,6.0,78,0.00,,,0.06,WUHU21623XXSP,2013-03-02 02:47:00,
2013-03-01 21:52:00,30.6,24.8,29.78,WNW,292,4.3,6.0,79,0.00,,,0.06,WUHU21623XXSP,2013-03-02 02:52:00,
2013-03-01 21:57:00,30.4,24.7,29.78,West,270,3.1,5.4,79,0.00,,,0.06,WUHU21623XXSP,2013-03-02 02:57:00,
2013-03-01 22:02:00,30.6,24.5,29.78,West,270,4.3,8.3,78,0.00,,,0.06,WUHU21623XXSP,2013-03-02 03:02:00,
2013-03-01 22:07:00,30.6,24.5,29.78,WNW,292,4.0,8.3,78,0.00,,,0.06,WUHU21623XXSP,2013-03-02 03:07:00,
2013-03-01 22:12:00,30.4,24.3,29.78,NNW,337,4.0,7.2,78,0.00,,,0.06,WUHU21623XXSP,2013-03-02 03:12:00,
2013-03-01 22:17:00,30.4,24.3,29.78,West,270,4.3,6.3,78,0.00,,,0.06,WUHU21623XXSP,2013-03-02 03:17:00,
2013-03-01 22:22:00,30.4,24.3,29.78,WSW,247,2.2,9.6,78,0.00,,,0.06,WUHU21623XXSP,2013-03-02 03:22:00,
2013-03-01 22:27:00,30.4,24.3,29.78,West,270,2.2,9.6,78,0.00,,,0.06,WUHU21623XXSP,2013-03-02 03:27:00,
2013-03-01 22:32:00,30.4,24.3,29.78,WNW,292,3.1,6.9,78,0.00,,,0.06,WUHU21623XXSP,2013-03-02 03:32:00,
2013-03-01 22:37:00,30.6,24.5,29.78,WNW,292,3.6,6.9,78,0.00,,,0.06,WUHU21623XXSP,2013-03-02 03:37:00,
2013-03-01 22:42:00,31.1,25.7,29.78,WNW,292,2.0,6.9,80,0.00,,,0.06,WUHU21623XXSP,2013-03-02 03:42:00,
2013-03-01 22:47:00,30.7,24.7,29.78,WNW,292,2.0,7.4,78,0.00,,,0.06,WUHU21623XXSP,2013-03-02 03:47:00,
2013-03-01 22:52:00,30.7,25.0,29.78,WNW,292,0.0,7.4,79,0.00,,,0.06,WUHU21623XXSP,2013-03-02 03:52:00,
2013-03-01 22:57:00,30.4,24.3,29.78,WNW,292,0.0,4.9,78,0.00,,,0.06,WUHU21623XXSP,2013-03-02 03:57:00,
2013-03-01 23:02:00,30.6,24.8,29.78,WNW,292,3.1,4.9,79,0.00,,,0.06,WUHU21623XXSP,2013-03-02 04:02:00,
2013-03-01 23:07:00,30.4,24.7,29.77,West,270,2.5,5.8,79,0.00,,,0.06,WUHU21623XXSP,2013-03-02 04:07:00,
2013-03-01 23:12:00,30.2,24.2,29.77,West,270,1.6,6.9,78,0.00,,,0.06,WUHU21623XXSP,2013-03-02 04:12:00,
2013-03-01 23:17:00,30.4,25.0,29.78,WNW,292,2.9,6.9,80,0.00,,,0.06,WUHU21623XXSP,2013-03-02 04:17:00,
2013-03-01 23:22:00,30.4,24.7,29.77,NW,315,7.4,7.4,79,0.00,,,0.06,WUHU21623XXSP,2013-03-02 04:22:00,
2013-03-01 23:27:00,30.0,24.0,29.77,WNW,292,4.3,7.4,78,0.00,,,0.06,WUHU21623XXSP,2013-03-02 04:27:00,
2013-03-01 23:32:00,30.0,24.3,29.76,WNW,292,1.6,7.2,79,0.00,,,0.06,WUHU21623XXSP,2013-03-02 04:32:00,
2013-03-01 23:37:00,30.0,24.3,29.76,West,270,5.6,7.6,79,0.00,,,0.06,WUHU21623XXSP,2013-03-02 04:37:00,
2013-03-01 23:42:00,30.0,24.3,29.77,WNW,292,4.7,7.8,79,0.00,,,0.06,WUHU21623XXSP,2013-03-02 04:42:00,
2013-03-01 23:47:00,29.8,24.1,29.76,West,270,4.3,7.8,79,0.00,,,0.06,WUHU21623XXSP,2013-03-02 04:47:00,
2013-03-01 23:52:00,29.8,24.1,29.77,West,270,1.6,7.2,79,0.00,,,0.06,WUHU21623XXSP,2013-03-02 04:52:00,
2013-03-01 23:57:00,29.8,23.8,29.77,West,270,3.4,7.4,78,0.00,,,0.06,WUHU21623XXSP,2013-03-02 04:57:00,